Air Quality Table

TIMESTAMP NO2 SO2 O3 PM10 PM2.5 CO TEMP HUM AIRPRES WS WD NO BENZENE
2023-03-23 02:00 9.24 µg/m3 0.58 µg/m3 52.09 µg/m3 7.06 µg/m3 4.3 µg/m3 0.4 mg/m3 13.9 °C 85.06 % 1,015.17 mbar 0.66 m/s 207.35 Deg 0.42 µg/m3 0.7 µg/m3
2023-03-23 01:00 22.98 µg/m3 0.65 µg/m3 34.03 µg/m3 10.88 µg/m3 7.27 µg/m3 0.46 mg/m3 13.39 °C 88.69 % 1,015.37 mbar 0.08 m/s 239.5 Deg 5.72 µg/m3 1.23 µg/m3
2023-03-23 00:00 26.64 µg/m3 0.93 µg/m3 40.23 µg/m3 12.99 µg/m3 9.02 µg/m3 0.5 mg/m3 13.6 °C 89.36 % 1,015.66 mbar 0.5 m/s 231.84 Deg 8.38 µg/m3 1.12 µg/m3
2023-03-22 23:00 32.45 µg/m3 0.97 µg/m3 31.95 µg/m3 12.98 µg/m3 8.91 µg/m3 0.49 mg/m3 13.33 °C 89.06 % 1,015.88 mbar 1.01 m/s 216.93 Deg 13.19 µg/m3 1.76 µg/m3
2023-03-22 22:00 40.02 µg/m3 1.14 µg/m3 20.51 µg/m3 15.34 µg/m3 8.94 µg/m3 0.52 mg/m3 13.57 °C 85.6 % 1,015.62 mbar 0.88 m/s 213.4 Deg 17.73 µg/m3 3.94 µg/m3
2023-03-22 21:00 38.41 µg/m3 1.1 µg/m3 26.01 µg/m3 18.25 µg/m3 10.13 µg/m3 0.48 mg/m3 13.54 °C 82.9 % 1,015.31 mbar 0.97 m/s 223.71 Deg 15.48 µg/m3 2.96 µg/m3
2023-03-22 20:00 62.82 µg/m3 1.2 µg/m3 14.45 µg/m3 20.09 µg/m3 9.63 µg/m3 0.5 mg/m3 14.43 °C 79.34 % 1,014.84 mbar 0.53 m/s 246.38 Deg 44.95 µg/m3 1.84 µg/m3
2023-03-22 19:00 43.16 µg/m3 1.11 µg/m3 33.5 µg/m3 19.77 µg/m3 8.85 µg/m3 0.44 mg/m3 15.17 °C 76.59 % 1,014.45 mbar 0.88 m/s 182.46 Deg 23.55 µg/m3 1.5 µg/m3
2023-03-22 18:00 24.19 µg/m3 1.03 µg/m3 59.23 µg/m3 15.6 µg/m3 8.1 µg/m3 0.39 mg/m3 16.44 °C 70.35 % 1,014.03 mbar 1.37 m/s 61.97 Deg 6.49 µg/m3 1.54 µg/m3
2023-03-22 17:00 14.1 µg/m3 0.8 µg/m3 66.15 µg/m3 13.21 µg/m3 7.2 µg/m3 0.37 mg/m3 16.33 °C 70.81 % 1,013.80 mbar 1.79 m/s 56.32 Deg 4.21 µg/m3 0.76 µg/m3
2023-03-22 16:00 7.62 µg/m3 0.85 µg/m3 72.03 µg/m3 11.45 µg/m3 6.75 µg/m3 0.34 mg/m3 15.99 °C 70.68 % 1,013.83 mbar 2.23 m/s 55.9 Deg 2.43 µg/m3 0.82 µg/m3
2023-03-22 15:00 7.12 µg/m3 0.33 µg/m3 73.22 µg/m3 9.3 µg/m3 5.7 µg/m3 0.3 mg/m3 16.04 °C 73 % 1,013.85 mbar 2.3 m/s 51.82 Deg 2.32 µg/m3 1.36 µg/m3
2023-03-22 14:00 6.21 µg/m3 0.44 µg/m3 74.35 µg/m3 9.59 µg/m3 5.88 µg/m3 0.28 mg/m3 15.67 °C 77.06 % 1,014.11 mbar 2.85 m/s 53.87 Deg 2.9 µg/m3 3.46 µg/m3
2023-03-22 13:00 12.74 µg/m3 0.69 µg/m3 69.51 µg/m3 12.74 µg/m3 7.17 µg/m3 0.29 mg/m3 15.58 °C 80.99 % 1,014.57 mbar 3.38 m/s 59.82 Deg 4.13 µg/m3 1.1 µg/m3
2023-03-22 12:00 16.32 µg/m3 0.77 µg/m3 65.38 µg/m3 13.04 µg/m3 7.57 µg/m3 0.31 mg/m3 15.6 °C 80.82 % 1,014.98 mbar 3.41 m/s 65.69 Deg 5.29 µg/m3 1.05 µg/m3
2023-03-22 11:00 18.04 µg/m3 0.75 µg/m3 63.34 µg/m3 13.2 µg/m3 7.22 µg/m3 0.33 mg/m3 15.42 °C 80.51 % 1,015.18 mbar 2.93 m/s 66.77 Deg 5.38 µg/m3 1.19 µg/m3
2023-03-22 10:00 15.15 µg/m3 1.34 µg/m3 65.71 µg/m3 15.06 µg/m3 7.14 µg/m3 0 mg/m3 15.33 °C 79.88 % 1,015.04 mbar 2.65 m/s 64.63 Deg 2.84 µg/m3 1.47 µg/m3
2023-03-22 09:00 17.93 µg/m3 1.15 µg/m3 57.79 µg/m3 18.08 µg/m3 7.93 µg/m3 0.31 mg/m3 15.21 °C 82.01 % 1,014.59 mbar 2.63 m/s 68.18 Deg 5.08 µg/m3 1.28 µg/m3
2023-03-22 08:00 19.92 µg/m3 0.85 µg/m3 54.43 µg/m3 17.47 µg/m3 8.17 µg/m3 0.31 mg/m3 14.89 °C 83.72 % 1,013.94 mbar 2.77 m/s 70.78 Deg 6.94 µg/m3 1.29 µg/m3
2023-03-22 07:00 15.29 µg/m3 0.5 µg/m3 59.28 µg/m3 16.35 µg/m3 9.49 µg/m3 0.29 mg/m3 14.69 °C 84.31 % 1,013.57 mbar 3 m/s 56.38 Deg 4.07 µg/m3 1.18 µg/m3
2023-03-22 06:00 6.46 µg/m3 0.42 µg/m3 68.96 µg/m3 15.86 µg/m3 11.82 µg/m3 0.27 mg/m3 14.8 °C 89.58 % 1,013.18 mbar 4.27 m/s 47.11 Deg 0.89 µg/m3 1.1 µg/m3
2023-03-22 05:00 6.72 µg/m3 0.66 µg/m3 67.55 µg/m3 11.97 µg/m3 8.42 µg/m3 0.27 mg/m3 14.79 °C 84.85 % 1,012.39 mbar 4.87 m/s 48.13 Deg 0.26 µg/m3 1.29 µg/m3
2023-03-22 04:00 10.8 µg/m3 0.63 µg/m3 67.71 µg/m3 10.93 µg/m3 6.54 µg/m3 0.26 mg/m3 14.67 °C 85.11 % 1,012.30 mbar 4.2 m/s 60.23 Deg 0.38 µg/m3 0.65 µg/m3
2023-03-22 03:00 16.4 µg/m3 0.15 µg/m3 73.09 µg/m3 9.46 µg/m3 5.92 µg/m3 0.19 mg/m3 14.86 °C 84.93 % 1,012.65 mbar 3.66 m/s 60.43 Deg -0.04 µg/m3 0.76 µg/m3
2023-03-22 02:00 2.69 µg/m3 0.35 µg/m3 71.28 µg/m3 11.37 µg/m3 7.49 µg/m3 0.28 mg/m3 14.94 °C 86.3 % 1,012.91 mbar 4.1 m/s 62.48 Deg 0.11 µg/m3 0.73 µg/m3
2023-03-22 01:00 2.81 µg/m3 0.41 µg/m3 73.21 µg/m3 12.88 µg/m3 9.03 µg/m3 0.29 mg/m3 15.13 °C 85.67 % 1,013.09 mbar 5.36 m/s 56.19 Deg 0.01 µg/m3 0.84 µg/m3
2023-03-22 00:00 2.03 µg/m3 0.49 µg/m3 74.1 µg/m3 13.54 µg/m3 9.79 µg/m3 0.3 mg/m3 15.13 °C 84.89 % 1,013.18 mbar 5.1 m/s 54.84 Deg 0.13 µg/m3 1 µg/m3
2023-03-21 23:00 2.47 µg/m3 0.28 µg/m3 73.46 µg/m3 11.83 µg/m3 8.57 µg/m3 0.3 mg/m3 15.12 °C 85.91 % 1,013.09 mbar 4.56 m/s 57.22 Deg 0.44 µg/m3 0.92 µg/m3
2023-03-21 22:00 4.86 µg/m3 0.34 µg/m3 69.69 µg/m3 13.13 µg/m3 8.25 µg/m3 0.31 mg/m3 15.18 °C 87.1 % 1,013.13 mbar 3.77 m/s 60.82 Deg 1.36 µg/m3 1.05 µg/m3
2023-03-21 21:00 6.86 µg/m3 0.41 µg/m3 67.44 µg/m3 15.35 µg/m3 8.81 µg/m3 0.32 mg/m3 15.21 °C 87.88 % 1,012.72 mbar 3.53 m/s 69.03 Deg 1.37 µg/m3 0.98 µg/m3
2023-03-21 20:00 9.33 µg/m3 0.33 µg/m3 66.02 µg/m3 17.74 µg/m3 9.51 µg/m3 0.33 mg/m3 15.18 °C 86.56 % 1,012.18 mbar 2.94 m/s 136.48 Deg 2.38 µg/m3 1.29 µg/m3
2023-03-21 19:00 14.21 µg/m3 0.48 µg/m3 61.87 µg/m3 18.48 µg/m3 10.06 µg/m3 0.32 mg/m3 15.28 °C 86.08 % 1,011.62 mbar 3.16 m/s 73.83 Deg 3.78 µg/m3 1.05 µg/m3
2023-03-21 18:00 12.11 µg/m3 0.32 µg/m3 64.31 µg/m3 20.47 µg/m3 10.62 µg/m3 0.31 mg/m3 15.66 °C 86.54 % 1,011.24 mbar 3.76 m/s 135.8 Deg 4.35 µg/m3 1.26 µg/m3
2023-03-21 17:00 10.62 µg/m3 0.48 µg/m3 66.76 µg/m3 18.67 µg/m3 10.09 µg/m3 0.3 mg/m3 15.95 °C 86.29 % 1,010.83 mbar 4.35 m/s 64.85 Deg 3.35 µg/m3 0.92 µg/m3
2023-03-21 16:00 10.01 µg/m3 0.38 µg/m3 68.34 µg/m3 17.1 µg/m3 9.88 µg/m3 0.28 mg/m3 16.06 °C 86.38 % 1,010.93 mbar 4.63 m/s 63.68 Deg 3.72 µg/m3 1.07 µg/m3
2023-03-21 15:00 12.56 µg/m3 0.37 µg/m3 65.38 µg/m3 16.54 µg/m3 9.28 µg/m3 0.28 mg/m3 15.95 °C 87.56 % 1,011.45 mbar 4.9 m/s 62.22 Deg 5.27 µg/m3 0.92 µg/m3
2023-03-21 14:00 14.95 µg/m3 0.36 µg/m3 66.12 µg/m3 16.63 µg/m3 9.21 µg/m3 0.29 mg/m3 15.95 °C 87.61 % 1,011.87 mbar 4.78 m/s 60.95 Deg 5.89 µg/m3 1.15 µg/m3
2023-03-21 13:00 11.56 µg/m3 0.35 µg/m3 68.04 µg/m3 20.62 µg/m3 9.74 µg/m3 0.3 mg/m3 15.84 °C 88.05 % 1,012.06 mbar 4.88 m/s 65.2 Deg 3.77 µg/m3 0.89 µg/m3
2023-03-21 12:00 10.63 µg/m3 0.35 µg/m3 69.74 µg/m3 20.29 µg/m3 9.6 µg/m3 0.31 mg/m3 15.67 °C 88.17 % 1,012.19 mbar 4.92 m/s 64.26 Deg 4.16 µg/m3 0.92 µg/m3
2023-03-21 11:00 9.38 µg/m3 0.09 µg/m3 68.01 µg/m3 22.13 µg/m3 9.33 µg/m3 0.31 mg/m3 15.48 °C 88.24 % 1,012.65 mbar 4.55 m/s 64.63 Deg 3.59 µg/m3 1.05 µg/m3
2023-03-21 10:00 11.8 µg/m3 0.32 µg/m3 66.43 µg/m3 19.42 µg/m3 8.93 µg/m3 0.31 mg/m3 15.19 °C 90.25 % 1,012.55 mbar 4.42 m/s 62.98 Deg 4.02 µg/m3 1.28 µg/m3
2023-03-21 09:00 10.93 µg/m3 0.4 µg/m3 65.44 µg/m3 17.64 µg/m3 9.03 µg/m3 0.31 mg/m3 15.03 °C 91.2 % 1,012.30 mbar 4.48 m/s 61.49 Deg 3.15 µg/m3 1.31 µg/m3
2023-03-21 08:00 13.93 µg/m3 0.36 µg/m3 64.52 µg/m3 17.34 µg/m3 8.85 µg/m3 0.3 mg/m3 14.99 °C 90.92 % 1,012.08 mbar 4.96 m/s 62.3 Deg 4.21 µg/m3 1.15 µg/m3
2023-03-21 07:00 12.01 µg/m3 0.38 µg/m3 64.38 µg/m3 16.08 µg/m3 8.89 µg/m3 0.29 mg/m3 14.97 °C 92.54 % 1,011.85 mbar 4.55 m/s 62.54 Deg 2.98 µg/m3 0.92 µg/m3
2023-03-21 06:00 10.78 µg/m3 0.29 µg/m3 63.11 µg/m3 16.05 µg/m3 8.87 µg/m3 0.28 mg/m3 14.41 °C 93.99 % 1,011.62 mbar 1.99 m/s 167.86 Deg 1.06 µg/m3 0.84 µg/m3
2023-03-21 05:00 8.76 µg/m3 0.3 µg/m3 62.68 µg/m3 14.47 µg/m3 8.85 µg/m3 0.28 mg/m3 14.48 °C 94.16 % 1,012.09 mbar 2.32 m/s 38.33 Deg 0.27 µg/m3 0.79 µg/m3
2023-03-21 04:00 8.84 µg/m3 0.27 µg/m3 70.46 µg/m3 12.03 µg/m3 7.5 µg/m3 0.27 mg/m3 14.98 °C 92.76 % 1,012.62 mbar 4.62 m/s 59.6 Deg 0.08 µg/m3 0.73 µg/m3
2023-03-21 03:00 19.77 µg/m3 0.2 µg/m3 70.71 µg/m3 12.74 µg/m3 7.68 µg/m3 0.18 mg/m3 15.04 °C 92.47 % 1,013.15 mbar 4.09 m/s 62.34 Deg -0.08 µg/m3 0.73 µg/m3
2023-03-21 02:00 1.48 µg/m3 0.16 µg/m3 72.64 µg/m3 13.4 µg/m3 7.86 µg/m3 0.28 mg/m3 15.08 °C 92.23 % 1,013.72 mbar 3.57 m/s 65.37 Deg -0.35 µg/m3 0.73 µg/m3
2023-03-21 01:00 1.46 µg/m3 0.4 µg/m3 72.33 µg/m3 14.6 µg/m3 8.19 µg/m3 0.29 mg/m3 15.09 °C 92.28 % 1,013.89 mbar 3.26 m/s 66.75 Deg 0.07 µg/m3 0.73 µg/m3
2023-03-21 00:00 2.16 µg/m3 0.3 µg/m3 72.1 µg/m3 15.87 µg/m3 8.66 µg/m3 0.29 mg/m3 15.12 °C 92.66 % 1,014.19 mbar 2.86 m/s 68.82 Deg 0.09 µg/m3 0.76 µg/m3
2023-03-20 23:00 2.73 µg/m3 0.18 µg/m3 72.18 µg/m3 15.25 µg/m3 8.59 µg/m3 0.31 mg/m3 15.24 °C 92.6 % 1,014.07 mbar 3.8 m/s 61.29 Deg 0.01 µg/m3 0.86 µg/m3
2023-03-20 22:00 9.36 µg/m3 0.65 µg/m3 64.8 µg/m3 23.23 µg/m3 10.92 µg/m3 0.32 mg/m3 15.29 °C 90.8 % 1,014.34 mbar 2.23 m/s 71.51 Deg 1.67 µg/m3 1.05 µg/m3
2023-03-20 21:00 12.92 µg/m3 0.41 µg/m3 61.67 µg/m3 24.06 µg/m3 10.61 µg/m3 0.33 mg/m3 15.24 °C 90.36 % 1,014.75 mbar 2.23 m/s 39.87 Deg 2.18 µg/m3 1.52 µg/m3
2023-03-20 20:00 8.45 µg/m3 0.32 µg/m3 66.95 µg/m3 20.24 µg/m3 9.8 µg/m3 0.34 mg/m3 15.28 °C 91.07 % 1,013.68 mbar 3.84 m/s 59.03 Deg 1.78 µg/m3 0.92 µg/m3
2023-03-20 19:00 19.46 µg/m3 0.5 µg/m3 56.21 µg/m3 25.83 µg/m3 11.34 µg/m3 0.36 mg/m3 15.51 °C 88.49 % 1,014.32 mbar 2.7 m/s 140.11 Deg 2.92 µg/m3 2.15 µg/m3
2023-03-20 18:00 31.39 µg/m3 0.72 µg/m3 46.92 µg/m3 25.45 µg/m3 10.72 µg/m3 0.35 mg/m3 15.63 °C 85.1 % 1,014.84 mbar 1.28 m/s 176.6 Deg 8.4 µg/m3 1.6 µg/m3
2023-03-20 17:00 25.84 µg/m3 0.43 µg/m3 53.74 µg/m3 23.85 µg/m3 9.9 µg/m3 0.34 mg/m3 15.41 °C 86.45 % 1,013.75 mbar 1.23 m/s 197.29 Deg 5.81 µg/m3 1.31 µg/m3
2023-03-20 16:00 23.4 µg/m3 0.47 µg/m3 58.54 µg/m3 27.92 µg/m3 11 µg/m3 0.32 mg/m3 15.75 °C 84.22 % 1,015.08 mbar 1.65 m/s 160.41 Deg 4.94 µg/m3 1.49 µg/m3
2023-03-20 15:00 17.75 µg/m3 0.38 µg/m3 62.42 µg/m3 26.55 µg/m3 10.2 µg/m3 0.32 mg/m3 16.24 °C 81.73 % 1,015.30 mbar 2.63 m/s 130.83 Deg 5.56 µg/m3 1.36 µg/m3
2023-03-20 14:00 19.24 µg/m3 0.7 µg/m3 61.51 µg/m3 31.61 µg/m3 11.34 µg/m3 0.32 mg/m3 15.96 °C 82.11 % 1,015.37 mbar 2.9 m/s 201.4 Deg 5.63 µg/m3 2.65 µg/m3
2023-03-20 13:00 17.37 µg/m3 0.57 µg/m3 61.73 µg/m3 28.79 µg/m3 10.6 µg/m3 0.31 mg/m3 16.45 °C 78.23 % 1,017.14 mbar 2.65 m/s 197.97 Deg 4.79 µg/m3 1.36 µg/m3
2023-03-20 12:00 15.38 µg/m3 0.56 µg/m3 63.8 µg/m3 26.53 µg/m3 8.22 µg/m3 0.31 mg/m3 16.58 °C 76.69 % 1,017.83 mbar 2.09 m/s 122.49 Deg 4.94 µg/m3 1.39 µg/m3
2023-03-20 11:00 15.97 µg/m3 0.41 µg/m3 64.56 µg/m3 22.33 µg/m3 7.51 µg/m3 0.32 mg/m3 16.17 °C 76.79 % 1,017.97 mbar 2.24 m/s 161.64 Deg 4.67 µg/m3 1.05 µg/m3
2023-03-20 10:00 21.2 µg/m3 0.53 µg/m3 59.06 µg/m3 18.89 µg/m3 6.98 µg/m3 0.34 mg/m3 15.91 °C 77.46 % 1,018.45 mbar 2.07 m/s 171.48 Deg 6.58 µg/m3 1.47 µg/m3
2023-03-20 09:00 29.06 µg/m3 0.65 µg/m3 51.91 µg/m3 22.86 µg/m3 7.38 µg/m3 0.34 mg/m3 15.11 °C 79.88 % 1,017.60 mbar 2.64 m/s 67.21 Deg 7.44 µg/m3 1.61 µg/m3
2023-03-20 08:00 37.63 µg/m3 0.63 µg/m3 43.88 µg/m3 18.72 µg/m3 6.96 µg/m3 0.32 mg/m3 14.73 °C 80.2 % 1,017.72 mbar 2.03 m/s 203.85 Deg 10.03 µg/m3 2.02 µg/m3
2023-03-20 07:00 28.66 µg/m3 0.63 µg/m3 50.27 µg/m3 11.43 µg/m3 5.45 µg/m3 0.29 mg/m3 14.45 °C 79.78 % 1,017.34 mbar 1.84 m/s 133.7 Deg 7.39 µg/m3 0.89 µg/m3
2023-03-20 06:00 14.11 µg/m3 0.41 µg/m3 61.57 µg/m3 8.59 µg/m3 4.76 µg/m3 0.27 mg/m3 14.2 °C 79.47 % 1,017.14 mbar 1.76 m/s 112.7 Deg 1.73 µg/m3 0.86 µg/m3
2023-03-20 05:00 9.48 µg/m3 0.24 µg/m3 60.9 µg/m3 8.32 µg/m3 4.53 µg/m3 0.27 mg/m3 14.13 °C 78.63 % 1,017.48 mbar 1.41 m/s 119.73 Deg 0.41 µg/m3 0.98 µg/m3
2023-03-20 04:00 8.25 µg/m3 0.24 µg/m3 66.89 µg/m3 7.45 µg/m3 4.2 µg/m3 0.28 mg/m3 14.18 °C 77.2 % 1,017.60 mbar 1.22 m/s 53.52 Deg -0.06 µg/m3 0.79 µg/m3
2023-03-20 03:00 15.64 µg/m3 0.47 µg/m3 65.11 µg/m3 7.65 µg/m3 4.37 µg/m3 0.19 mg/m3 13.95 °C 77.83 % 1,017.60 mbar 1.57 m/s 69.67 Deg -0.16 µg/m3 0.97 µg/m3
2023-03-20 02:00 3.71 µg/m3 0.3 µg/m3 65.81 µg/m3 8.65 µg/m3 4.47 µg/m3 0.29 mg/m3 14.06 °C 77.61 % 1,018.40 mbar 1.44 m/s 120.68 Deg -0.2 µg/m3 0.89 µg/m3
2023-03-20 01:00 6.33 µg/m3 0.64 µg/m3 59.99 µg/m3 8.46 µg/m3 4.76 µg/m3 0.32 mg/m3 14.42 °C 76.02 % 1,019.07 mbar 1.62 m/s 58.65 Deg 0.48 µg/m3 1.13 µg/m3
2023-03-20 00:00 7.64 µg/m3 0.5 µg/m3 60.34 µg/m3 8.25 µg/m3 4.71 µg/m3 0.34 mg/m3 14.69 °C 73.62 % 1,019.77 mbar 0.97 m/s 58.93 Deg 0.29 µg/m3 0.94 µg/m3
2023-03-19 23:00 11.92 µg/m3 0.52 µg/m3 61.57 µg/m3 8.78 µg/m3 4.81 µg/m3 0.35 mg/m3 14.66 °C 73.37 % 1,019.65 mbar 0.95 m/s 105.07 Deg 0.99 µg/m3 1.12 µg/m3
2023-03-19 22:00 26.81 µg/m3 0.58 µg/m3 45.85 µg/m3 10.62 µg/m3 5.29 µg/m3 0.38 mg/m3 14.31 °C 74.2 % 1,019.61 mbar 0.64 m/s 271 Deg 3.78 µg/m3 1.31 µg/m3
2023-03-19 21:00 18.19 µg/m3 0.46 µg/m3 49.85 µg/m3 12.75 µg/m3 5.46 µg/m3 0.37 mg/m3 14.58 °C 72.38 % 1,018.97 mbar 1.05 m/s 53.29 Deg 2.77 µg/m3 1.33 µg/m3
2023-03-19 20:00 25.97 µg/m3 0.46 µg/m3 48.39 µg/m3 12.04 µg/m3 5.34 µg/m3 0.39 mg/m3 15.16 °C 69.74 % 1,019.21 mbar 0.9 m/s 308.39 Deg 7.25 µg/m3 1.96 µg/m3
2023-03-19 19:00 38.18 µg/m3 0.61 µg/m3 42.78 µg/m3 13.94 µg/m3 5.76 µg/m3 0.4 mg/m3 15.02 °C 69.47 % 1,018.75 mbar 0.77 m/s 292.08 Deg 9.01 µg/m3 1.73 µg/m3
2023-03-19 18:00 23.68 µg/m3 0.91 µg/m3 55.43 µg/m3 12.2 µg/m3 5.83 µg/m3 0.38 mg/m3 15.83 °C 65.87 % 1,018.36 mbar 1.19 m/s 148.25 Deg 6.14 µg/m3 1.18 µg/m3
2023-03-19 17:00 18.33 µg/m3 0.73 µg/m3 57.21 µg/m3 12.2 µg/m3 4.86 µg/m3 0.36 mg/m3 16.65 °C 63.67 % 1,018.29 mbar 1.26 m/s 196.13 Deg 5.25 µg/m3 1.36 µg/m3
2023-03-19 16:00 16.15 µg/m3 0.75 µg/m3 57.27 µg/m3 11.41 µg/m3 4.8 µg/m3 0.37 mg/m3 17.25 °C 62.41 % 1,018.00 mbar 1.71 m/s 164.95 Deg 8.39 µg/m3 2.17 µg/m3
2023-03-19 15:00 14.5 µg/m3 0.61 µg/m3 62.93 µg/m3 10.82 µg/m3 4.87 µg/m3 0.33 mg/m3 17.17 °C 62.37 % 1,018.28 mbar 1.71 m/s 182.73 Deg 6.14 µg/m3 1.36 µg/m3
2023-03-19 14:00 13.82 µg/m3 0.59 µg/m3 62.87 µg/m3 13.65 µg/m3 5.19 µg/m3 0.33 mg/m3 17.29 °C 62.49 % 1,018.81 mbar 1.78 m/s 254.25 Deg 4.96 µg/m3 1.55 µg/m3
2023-03-19 13:00 13.86 µg/m3 0.8 µg/m3 60.73 µg/m3 13.75 µg/m3 4.98 µg/m3 0.37 mg/m3 17.27 °C 61.98 % 1,019.42 mbar 1.9 m/s 213.83 Deg 5.82 µg/m3 2.08 µg/m3
2023-03-19 12:00 15.59 µg/m3 0.97 µg/m3 61.99 µg/m3 12.47 µg/m3 4.79 µg/m3 0.4 mg/m3 17.21 °C 61.96 % 1,019.89 mbar 1.67 m/s 221.63 Deg 5.59 µg/m3 2.07 µg/m3
2023-03-19 11:00 15.45 µg/m3 0.91 µg/m3 58.38 µg/m3 10.22 µg/m3 4.16 µg/m3 0.45 mg/m3 16.78 °C 63.53 % 1,020.13 mbar 1.52 m/s 197.58 Deg 5.21 µg/m3 2.26 µg/m3
2023-03-19 10:00 18.17 µg/m3 1.24 µg/m3 54.54 µg/m3 12.02 µg/m3 5.01 µg/m3 0.47 mg/m3 15.99 °C 66.4 % 1,020.02 mbar 1.35 m/s 179.12 Deg 5.46 µg/m3 2.54 µg/m3
2023-03-19 09:00 25 µg/m3 1.18 µg/m3 44.31 µg/m3 15.87 µg/m3 7.82 µg/m3 0.49 mg/m3 14.53 °C 74.73 % 1,019.89 mbar 0.71 m/s 44.74 Deg 6.52 µg/m3 3.99 µg/m3
2023-03-19 08:00 42.35 µg/m3 1.65 µg/m3 13.65 µg/m3 18.84 µg/m3 10.41 µg/m3 0.49 mg/m3 12.66 °C 81.64 % 1,019.42 mbar 0.39 m/s 190.36 Deg 30.41 µg/m3 5.28 µg/m3
2023-03-19 07:00 34.15 µg/m3 1.37 µg/m3 15.87 µg/m3 12.6 µg/m3 7.5 µg/m3 0.41 mg/m3 11.16 °C 85.1 % 1,018.79 mbar 0.8 m/s 203.06 Deg 23.42 µg/m3 2.13 µg/m3
2023-03-19 06:00 35.83 µg/m3 0.68 µg/m3 19.72 µg/m3 11.2 µg/m3 7.68 µg/m3 0.35 mg/m3 10.49 °C 87.09 % 1,018.01 mbar 0.11 m/s 249.64 Deg 23.76 µg/m3 1.4 µg/m3
2023-03-19 05:00 14.01 µg/m3 0.61 µg/m3 37.03 µg/m3 8.79 µg/m3 6.04 µg/m3 0.34 mg/m3 9.91 °C 88.76 % 1,018.01 mbar 0.4 m/s 259.49 Deg 1.78 µg/m3 1.21 µg/m3
2023-03-19 04:00 28.04 µg/m3 0.74 µg/m3 30.6 µg/m3 9.38 µg/m3 6.19 µg/m3 0.38 mg/m3 10.76 °C 86.2 % 1,017.97 mbar 0.19 m/s 267.01 Deg 3.69 µg/m3 2.28 µg/m3
2023-03-19 03:00 32.44 µg/m3 0.74 µg/m3 29.03 µg/m3 11.06 µg/m3 7.29 µg/m3 0.28 mg/m3 9.72 °C 88.55 % 1,018.42 mbar 0.48 m/s 233.48 Deg 6.51 µg/m3 1.44 µg/m3
2023-03-19 02:00 40.05 µg/m3 0.84 µg/m3 21.63 µg/m3 11.21 µg/m3 7.56 µg/m3 0.5 mg/m3 10 °C 86.92 % 1,018.50 mbar 0.36 m/s 241.74 Deg 16.2 µg/m3 2.81 µg/m3
2023-03-19 01:00 36.87 µg/m3 1.18 µg/m3 16.06 µg/m3 13.5 µg/m3 8.56 µg/m3 0.57 mg/m3 10.12 °C 86.12 % 1,018.46 mbar 0.4 m/s 228.86 Deg 27.67 µg/m3 2.26 µg/m3
2023-03-19 00:00 37.97 µg/m3 1.46 µg/m3 19.03 µg/m3 16.38 µg/m3 10.43 µg/m3 0.62 mg/m3 10.1 °C 85.17 % 1,018.40 mbar 0.75 m/s 253.53 Deg 29.6 µg/m3 3.46 µg/m3
2023-03-18 23:00 58.03 µg/m3 1.96 µg/m3 3.53 µg/m3 19.32 µg/m3 12.25 µg/m3 0.68 mg/m3 10.61 °C 82.89 % 1,018.56 mbar 0.18 m/s 281.03 Deg 74.23 µg/m3 4.17 µg/m3
2023-03-18 22:00 42.07 µg/m3 1.27 µg/m3 16.42 µg/m3 17.7 µg/m3 10.3 µg/m3 0.55 mg/m3 10.5 °C 83.07 % 1,018.68 mbar 0.47 m/s 253.97 Deg 21.4 µg/m3 3.62 µg/m3
2023-03-18 21:00 55.86 µg/m3 1.67 µg/m3 5.47 µg/m3 20.97 µg/m3 12.49 µg/m3 0.58 mg/m3 10.84 °C 81.22 % 1,018.48 mbar 0.02 m/s 281.98 Deg 29.67 µg/m3 4.76 µg/m3
2023-03-18 20:00 60.39 µg/m3 1.36 µg/m3 10.81 µg/m3 22.59 µg/m3 12.42 µg/m3 0.55 mg/m3 12.55 °C 74.05 % 1,018.13 mbar 1.11 m/s 177.62 Deg 38.28 µg/m3 3.62 µg/m3
2023-03-18 19:00 60.71 µg/m3 1.22 µg/m3 20.37 µg/m3 19.97 µg/m3 9.47 µg/m3 0.49 mg/m3 13.27 °C 71.32 % 1,017.74 mbar 1.73 m/s 183.33 Deg 34.33 µg/m3 2.28 µg/m3
2023-03-18 18:00 37.8 µg/m3 0.88 µg/m3 43.55 µg/m3 16.24 µg/m3 7.68 µg/m3 0.42 mg/m3 15.22 °C 63.7 % 1,017.54 mbar 1.47 m/s 191.78 Deg 11.58 µg/m3 1.84 µg/m3
2023-03-18 17:00 21.67 µg/m3 0.73 µg/m3 58.27 µg/m3 13.13 µg/m3 6.76 µg/m3 0.39 mg/m3 15.97 °C 59.4 % 1,017.55 mbar 1.94 m/s 193.31 Deg 7.05 µg/m3 1.82 µg/m3
2023-03-18 16:00 21.61 µg/m3 0.72 µg/m3 61.03 µg/m3 13.71 µg/m3 6.77 µg/m3 0.35 mg/m3 16.42 °C 57.54 % 1,017.86 mbar 2.28 m/s 191.54 Deg 7.62 µg/m3 1.31 µg/m3
2023-03-18 15:00 22.13 µg/m3 0.66 µg/m3 62.52 µg/m3 16.36 µg/m3 7.23 µg/m3 0.33 mg/m3 16.84 °C 54.62 % 1,018.06 mbar 1.81 m/s 187.66 Deg 8.18 µg/m3 1.26 µg/m3
2023-03-18 14:00 15.98 µg/m3 0.64 µg/m3 67.41 µg/m3 15.66 µg/m3 7.05 µg/m3 0.3 mg/m3 16.6 °C 53.91 % 1,018.46 mbar 1.66 m/s 195.48 Deg 4.85 µg/m3 2.26 µg/m3
2023-03-18 13:00 12.48 µg/m3 0.64 µg/m3 72.28 µg/m3 18.13 µg/m3 7.53 µg/m3 0.31 mg/m3 15.19 °C 60.91 % 1,019.10 mbar 2.82 m/s 40.13 Deg 3.87 µg/m3 1.81 µg/m3
2023-03-18 12:00 16.01 µg/m3 0.88 µg/m3 69.88 µg/m3 18.27 µg/m3 7.86 µg/m3 0.35 mg/m3 14.44 °C 63.9 % 1,019.57 mbar 3.55 m/s 63.41 Deg 9.17 µg/m3 1.97 µg/m3
2023-03-18 11:00 15.64 µg/m3 0.77 µg/m3 67.15 µg/m3 18.87 µg/m3 8.12 µg/m3 0.39 mg/m3 14.19 °C 64.41 % 1,019.87 mbar 3.15 m/s 128.57 Deg 5.38 µg/m3 2.05 µg/m3
2023-03-18 10:00 26.8 µg/m3 1.04 µg/m3 54.27 µg/m3 22.96 µg/m3 9.49 µg/m3 0.4 mg/m3 14.41 °C 61.02 % 1,020.10 mbar 1.26 m/s 250.78 Deg 10.38 µg/m3 2.47 µg/m3
2023-03-18 09:00 45.42 µg/m3 1.69 µg/m3 30.47 µg/m3 24.48 µg/m3 10.76 µg/m3 0.45 mg/m3 13.52 °C 67.68 % 1,020.07 mbar 0.55 m/s 195.07 Deg 31.41 µg/m3 3.99 µg/m3
2023-03-18 08:00 52.03 µg/m3 1.82 µg/m3 7.04 µg/m3 29.05 µg/m3 12.61 µg/m3 0.44 mg/m3 10.78 °C 76.91 % 1,019.68 mbar 0.57 m/s 203.16 Deg 60.15 µg/m3 2.87 µg/m3
2023-03-18 07:00 48.53 µg/m3 1.16 µg/m3 10.78 µg/m3 22.82 µg/m3 10.51 µg/m3 0.36 mg/m3 9.35 °C 80.92 % 1,019.27 mbar 0.61 m/s 201.91 Deg 41.53 µg/m3 2.49 µg/m3
2023-03-18 06:00 42.34 µg/m3 0.76 µg/m3 13.32 µg/m3 16.81 µg/m3 9.3 µg/m3 0.31 mg/m3 9.83 °C 78.31 % 1,018.96 mbar 0.66 m/s 186.01 Deg 28.38 µg/m3 1.44 µg/m3
2023-03-18 05:00 20.01 µg/m3 0.65 µg/m3 43.55 µg/m3 14.1 µg/m3 8.07 µg/m3 0.32 mg/m3 11.03 °C 73.74 % 1,018.81 mbar 1.03 m/s 166.44 Deg 2.47 µg/m3 1.39 µg/m3
2023-03-18 04:00 24.29 µg/m3 0.44 µg/m3 35.06 µg/m3 13.39 µg/m3 7.5 µg/m3 0.36 mg/m3 10.7 °C 76.37 % 1,018.68 mbar 0.9 m/s 174.23 Deg 2.98 µg/m3 1.91 µg/m3
2023-03-18 03:00 41.06 µg/m3 0.6 µg/m3 26.33 µg/m3 13.97 µg/m3 7.88 µg/m3 0.27 mg/m3 9.75 °C 80.59 % 1,018.92 mbar 0.49 m/s 196.67 Deg 8.01 µg/m3 1.84 µg/m3
2023-03-18 02:00 30.45 µg/m3 0.59 µg/m3 32.09 µg/m3 15.95 µg/m3 8.59 µg/m3 0.46 mg/m3 10.93 °C 75.7 % 1,019.37 mbar 0.69 m/s 176.29 Deg 6.45 µg/m3 3.94 µg/m3
2023-03-18 01:00 20.79 µg/m3 0.81 µg/m3 52.04 µg/m3 15.89 µg/m3 8 µg/m3 0.47 mg/m3 11.21 °C 75.12 % 1,019.59 mbar 0.64 m/s 176.26 Deg 3.56 µg/m3 1.84 µg/m3
2023-03-18 00:00 36.6 µg/m3 0.9 µg/m3 39.14 µg/m3 18.25 µg/m3 9.03 µg/m3 0.52 mg/m3 11.32 °C 75.88 % 1,019.66 mbar 0.35 m/s 164.19 Deg 8.87 µg/m3 1.97 µg/m3
2023-03-17 23:00 45.83 µg/m3 1.03 µg/m3 31.94 µg/m3 18.97 µg/m3 9.44 µg/m3 0.46 mg/m3 11.57 °C 76.31 % 1,019.73 mbar 0.21 m/s 111.59 Deg 9.54 µg/m3 1.94 µg/m3
2023-03-17 22:00 34.19 µg/m3 0.96 µg/m3 44.52 µg/m3 19.87 µg/m3 9.06 µg/m3 0.44 mg/m3 12.01 °C 75.42 % 1,019.50 mbar 0.43 m/s 212.34 Deg 4.16 µg/m3 4.25 µg/m3
2023-03-17 21:00 38.21 µg/m3 0.69 µg/m3 39.91 µg/m3 20.65 µg/m3 9 µg/m3 0.41 mg/m3 12.3 °C 74.93 % 1,019.18 mbar 0.44 m/s 228.38 Deg 5.67 µg/m3 1.86 µg/m3
2023-03-17 20:00 54.44 µg/m3 0.96 µg/m3 29.81 µg/m3 20.28 µg/m3 8.15 µg/m3 0.39 mg/m3 12.65 °C 71.15 % 1,018.82 mbar 0.51 m/s 207.2 Deg 13.88 µg/m3 1.84 µg/m3
2023-03-17 19:00 37.58 µg/m3 0.85 µg/m3 45.93 µg/m3 28.77 µg/m3 9.64 µg/m3 0.37 mg/m3 13.28 °C 69.57 % 1,018.40 mbar 0.72 m/s 199.31 Deg 7.38 µg/m3 2.12 µg/m3
2023-03-17 18:00 28.03 µg/m3 0.86 µg/m3 56.35 µg/m3 27.66 µg/m3 8.99 µg/m3 0.36 mg/m3 14.2 °C 68.48 % 1,017.97 mbar 1.54 m/s 72.02 Deg 7.41 µg/m3 1.4 µg/m3
2023-03-17 17:00 23.78 µg/m3 0.8 µg/m3 63.23 µg/m3 21.38 µg/m3 7.99 µg/m3 0.37 mg/m3 14.82 °C 67.09 % 1,017.63 mbar 1.86 m/s 72.41 Deg 6.48 µg/m3 2.05 µg/m3
2023-03-17 16:00 20.93 µg/m3 1.12 µg/m3 69.94 µg/m3 20.62 µg/m3 7.12 µg/m3 0.35 mg/m3 15.22 °C 61.65 % 1,017.62 mbar 1.9 m/s 120.13 Deg 6.31 µg/m3 1.49 µg/m3
2023-03-17 15:00 15.93 µg/m3 0.98 µg/m3 72.99 µg/m3 20.25 µg/m3 6.75 µg/m3 0.31 mg/m3 14.94 °C 61.97 % 1,017.62 mbar 3.28 m/s 62.71 Deg 6.76 µg/m3 0.94 µg/m3
2023-03-17 14:00 15.44 µg/m3 0.88 µg/m3 72.35 µg/m3 15.61 µg/m3 6.22 µg/m3 0.29 mg/m3 14.8 °C 62.86 % 1,017.79 mbar 3.48 m/s 61.5 Deg 6.56 µg/m3 1.15 µg/m3
2023-03-17 13:00 15.86 µg/m3 0.81 µg/m3 72.31 µg/m3 15.27 µg/m3 5.91 µg/m3 0.29 mg/m3 14.79 °C 61.99 % 1,018.07 mbar 3.71 m/s 60.96 Deg 8.54 µg/m3 0.94 µg/m3
2023-03-17 12:00 13.81 µg/m3 0.93 µg/m3 71 µg/m3 19.5 µg/m3 6.43 µg/m3 0.34 mg/m3 14.65 °C 60.52 % 1,018.28 mbar 3.29 m/s 60.45 Deg 5.27 µg/m3 1.61 µg/m3
2023-03-17 11:00 14.94 µg/m3 0.94 µg/m3 67.94 µg/m3 17.02 µg/m3 6 µg/m3 0.42 mg/m3 14.48 °C 61.9 % 1,018.19 mbar 3.1 m/s 60.91 Deg 5.97 µg/m3 2.34 µg/m3
2023-03-17 10:00 18.11 µg/m3 0.89 µg/m3 61.64 µg/m3 16.97 µg/m3 6.02 µg/m3 0.5 mg/m3 14.34 °C 64.11 % 1,018.03 mbar 2.62 m/s 63.47 Deg 8.59 µg/m3 1.42 µg/m3
2023-03-17 09:00 40.06 µg/m3 1.62 µg/m3 38.39 µg/m3 27.46 µg/m3 8.86 µg/m3 0.59 mg/m3 14.14 °C 67.04 % 1,017.83 mbar 1.45 m/s 51.42 Deg 21.28 µg/m3 2.23 µg/m3
2023-03-17 08:00 65.15 µg/m3 2.14 µg/m3 8.26 µg/m3 26.65 µg/m3 10.6 µg/m3 0.62 mg/m3 12.43 °C 75.54 % 1,017.51 mbar 0.51 m/s 247.01 Deg 95.44 µg/m3 4.01 µg/m3
2023-03-17 07:00 68.81 µg/m3 2.6 µg/m3 3.27 µg/m3 25.54 µg/m3 10.97 µg/m3 0.52 mg/m3 10.62 °C 79.75 % 1,017.04 mbar 0.49 m/s 267.82 Deg 136.49 µg/m3 5.43 µg/m3
2023-03-17 06:00 43.63 µg/m3 0.97 µg/m3 24.57 µg/m3 14.81 µg/m3 7.01 µg/m3 0.29 mg/m3 11.37 °C 75.29 % 1,016.59 mbar 0.66 m/s 189.65 Deg 25.29 µg/m3 1.78 µg/m3
2023-03-17 05:00 12.78 µg/m3 0.49 µg/m3 60.62 µg/m3 12.35 µg/m3 5.58 µg/m3 0.23 mg/m3 12.52 °C 69.36 % 1,016.39 mbar 1 m/s 135 Deg 2.49 µg/m3 0.86 µg/m3
2023-03-17 04:00 14.04 µg/m3 0.53 µg/m3 65.36 µg/m3 14.55 µg/m3 5.84 µg/m3 0.24 mg/m3 12.72 °C 67.67 % 1,016.25 mbar 1.04 m/s 95.76 Deg 1.14 µg/m3 0.73 µg/m3
2023-03-17 03:00 17.34 µg/m3 0.28 µg/m3 70.88 µg/m3 16.49 µg/m3 6.32 µg/m3 0.16 mg/m3 13.22 °C 65.78 % 1,016.44 mbar 1.68 m/s 57.67 Deg -0.15 µg/m3 0.73 µg/m3
2023-03-17 02:00 4.77 µg/m3 0.32 µg/m3 68.93 µg/m3 14.9 µg/m3 6.34 µg/m3 0.27 mg/m3 13.36 °C 66.01 % 1,016.71 mbar 1.55 m/s 95.42 Deg -0.09 µg/m3 0.81 µg/m3
2023-03-17 01:00 4.64 µg/m3 0.43 µg/m3 70.24 µg/m3 17.94 µg/m3 7.14 µg/m3 0.29 mg/m3 13.85 °C 66.64 % 1,016.63 mbar 2.54 m/s 114.76 Deg 0.54 µg/m3 0.84 µg/m3
2023-03-17 00:00 9.26 µg/m3 0.56 µg/m3 66.59 µg/m3 13.61 µg/m3 5.51 µg/m3 0.32 mg/m3 13.81 °C 71.21 % 1,016.51 mbar 1.84 m/s 49.2 Deg 0.93 µg/m3 1.19 µg/m3
2023-03-16 23:00 11.03 µg/m3 0.64 µg/m3 69.23 µg/m3 13.84 µg/m3 5.48 µg/m3 0.34 mg/m3 13.86 °C 76.14 % 1,016.12 mbar 1.52 m/s 101.93 Deg 0.83 µg/m3 1.49 µg/m3
2023-03-16 22:00 22.46 µg/m3 0.55 µg/m3 52.28 µg/m3 14.28 µg/m3 6.55 µg/m3 0.36 mg/m3 13.84 °C 74.55 % 1,015.77 mbar 1.11 m/s 249.22 Deg 5.16 µg/m3 1.4 µg/m3
2023-03-16 21:00 19.82 µg/m3 0.53 µg/m3 57.49 µg/m3 14.09 µg/m3 5.53 µg/m3 0.32 mg/m3 14.32 °C 64.89 % 1,015.46 mbar 0.9 m/s 308.13 Deg 2.35 µg/m3 1.42 µg/m3
2023-03-16 20:00 28.38 µg/m3 0.49 µg/m3 53.46 µg/m3 15.11 µg/m3 5.69 µg/m3 0.32 mg/m3 14.25 °C 63.38 % 1,015.08 mbar 1.3 m/s 276.08 Deg 3.11 µg/m3 1.26 µg/m3
2023-03-16 19:00 21.2 µg/m3 0.48 µg/m3 64.1 µg/m3 14.93 µg/m3 5.81 µg/m3 0.32 mg/m3 15.06 °C 63.55 % 1,014.53 mbar 1.9 m/s 315.75 Deg 3.68 µg/m3 1.1 µg/m3
2023-03-16 18:00 12.1 µg/m3 0.23 µg/m3 72.92 µg/m3 11.71 µg/m3 4.87 µg/m3 0.3 mg/m3 15.85 °C 59.43 % 1,014.21 mbar 3.18 m/s 336.9 Deg 3.46 µg/m3 1.08 µg/m3
2023-03-16 17:00 6.51 µg/m3 0.33 µg/m3 77 µg/m3 10.64 µg/m3 4.55 µg/m3 0.31 mg/m3 16.05 °C 55.95 % 1,013.90 mbar 4.01 m/s 178.66 Deg 2.41 µg/m3 2.2 µg/m3
2023-03-16 16:00 6.81 µg/m3 0.33 µg/m3 75.24 µg/m3 11.64 µg/m3 4.7 µg/m3 0.29 mg/m3 16 °C 57.04 % 1,013.65 mbar 4.3 m/s 191.09 Deg 3.56 µg/m3 0.79 µg/m3
2023-03-16 15:00 4.82 µg/m3 0.4 µg/m3 74.23 µg/m3 9.97 µg/m3 4.45 µg/m3 0.23 mg/m3 15.85 °C 54.71 % 1,013.42 mbar 4.48 m/s 23.98 Deg 2.18 µg/m3 1.08 µg/m3
2023-03-16 14:00 6.26 µg/m3 0.41 µg/m3 72.41 µg/m3 15.1 µg/m3 6.92 µg/m3 0.2 mg/m3 15.66 °C 62.33 % 1,013.37 mbar 5.1 m/s 35.46 Deg 2.29 µg/m3 0.7 µg/m3
2023-03-16 13:00 5.08 µg/m3 0.24 µg/m3 71.8 µg/m3 17.65 µg/m3 7.89 µg/m3 0.2 mg/m3 15.53 °C 63.48 % 1,013.66 mbar 5.6 m/s 32.66 Deg 1.95 µg/m3 0.65 µg/m3
2023-03-16 12:00 5.88 µg/m3 0.19 µg/m3 71.18 µg/m3 18.12 µg/m3 8.13 µg/m3 0.21 mg/m3 15.66 °C 63.63 % 1,013.74 mbar 5.63 m/s 30.73 Deg 2.57 µg/m3 0.63 µg/m3
2023-03-16 11:00 7.04 µg/m3 0.29 µg/m3 68.44 µg/m3 17.48 µg/m3 8.45 µg/m3 0.22 mg/m3 15.6 °C 65 % 1,013.53 mbar 4.85 m/s 106.15 Deg 2.93 µg/m3 0.65 µg/m3
2023-03-16 10:00 6.28 µg/m3 0.42 µg/m3 68.85 µg/m3 17.27 µg/m3 8.69 µg/m3 0.22 mg/m3 15.27 °C 67.42 % 1,013.33 mbar 4.92 m/s 337.64 Deg 2.65 µg/m3 0.89 µg/m3
2023-03-16 09:00 9.25 µg/m3 0.48 µg/m3 64.76 µg/m3 19.15 µg/m3 9.02 µg/m3 0.25 mg/m3 14.96 °C 70.12 % 1,012.97 mbar 4.25 m/s 253.24 Deg 3.75 µg/m3 0.97 µg/m3
2023-03-16 08:00 15.31 µg/m3 0.53 µg/m3 60.3 µg/m3 20.8 µg/m3 8.93 µg/m3 0.25 mg/m3 14.29 °C 70.65 % 1,012.34 mbar 3.34 m/s 321 Deg 4.34 µg/m3 1.05 µg/m3
2023-03-16 07:00 22.02 µg/m3 0.36 µg/m3 52.31 µg/m3 20.86 µg/m3 9.71 µg/m3 0.25 mg/m3 13.33 °C 73.6 % 1,011.65 mbar 1.86 m/s 295.15 Deg 6.13 µg/m3 1.05 µg/m3
2023-03-16 06:00 12.21 µg/m3 0.09 µg/m3 60.63 µg/m3 20.34 µg/m3 9.88 µg/m3 0.21 mg/m3 13.34 °C 72.54 % 1,011.29 mbar 2.16 m/s 294.71 Deg 1.5 µg/m3 0.63 µg/m3
2023-03-16 05:00 4.69 µg/m3 0.23 µg/m3 69.09 µg/m3 20.71 µg/m3 9.98 µg/m3 0.2 mg/m3 13.54 °C 70.39 % 1,011.12 mbar 2.24 m/s 307.56 Deg 0.02 µg/m3 0.58 µg/m3
2023-03-16 04:00 6.81 µg/m3 0.16 µg/m3 71.92 µg/m3 20.49 µg/m3 10.08 µg/m3 0.2 mg/m3 13.84 °C 68.4 % 1,010.86 mbar 3.12 m/s 288.14 Deg -0.14 µg/m3 0.52 µg/m3

It is to be noted that the data is provisional and subject to quality assurance procedures. For validated data kindly refer your request to contact.air@era.org.mt